sensor_id;sensor_type;location;lat;lon;timestamp;temperature;humidity
59148;DHT22;44930;52.878;6.168;2023-10-31T00:00:19;10.50;99.90
59148;DHT22;44930;52.878;6.168;2023-10-31T00:02:44;10.30;99.90
59148;DHT22;44930;52.878;6.168;2023-10-31T00:05:10;10.30;99.90
59148;DHT22;44930;52.878;6.168;2023-10-31T00:10:01;10.10;99.90
59148;DHT22;44930;52.878;6.168;2023-10-31T00:12:27;10.00;99.90
59148;DHT22;44930;52.878;6.168;2023-10-31T00:14:53;10.00;99.90
59148;DHT22;44930;52.878;6.168;2023-10-31T00:17:19;10.00;99.90
59148;DHT22;44930;52.878;6.168;2023-10-31T00:34:20;10.20;99.90
59148;DHT22;44930;52.878;6.168;2023-10-31T00:36:46;10.10;99.90
59148;DHT22;44930;52.878;6.168;2023-10-31T00:39:11;10.30;99.90
59148;DHT22;44930;52.878;6.168;2023-10-31T00:41:39;9.80;99.90
59148;DHT22;44930;52.878;6.168;2023-10-31T00:44:05;10.20;99.90
59148;DHT22;44930;52.878;6.168;2023-10-31T00:48:56;10.30;99.90
59148;DHT22;44930;52.878;6.168;2023-10-31T00:51:22;10.10;99.90
59148;DHT22;44930;52.878;6.168;2023-10-31T00:53:48;10.20;99.90
59148;DHT22;44930;52.878;6.168;2023-10-31T00:56:14;10.10;99.90
59148;DHT22;44930;52.878;6.168;2023-10-31T00:58:39;10.20;99.90
59148;DHT22;44930;52.878;6.168;2023-10-31T01:01:05;10.10;99.90
59148;DHT22;44930;52.878;6.168;2023-10-31T01:08:22;10.30;99.90
59148;DHT22;44930;52.878;6.168;2023-10-31T01:15:40;10.30;99.90
59148;DHT22;44930;52.878;6.168;2023-10-31T01:20:32;10.20;99.90
59148;DHT22;44930;52.878;6.168;2023-10-31T01:22:57;10.20;99.90
59148;DHT22;44930;52.878;6.168;2023-10-31T01:25:23;10.10;99.90
59148;DHT22;44930;52.878;6.168;2023-10-31T01:30:14;10.00;99.90
59148;DHT22;44930;52.878;6.168;2023-10-31T01:37:32;10.10;99.90
59148;DHT22;44930;52.878;6.168;2023-10-31T01:39:58;10.00;99.90
59148;DHT22;44930;52.878;6.168;2023-10-31T01:42:24;10.00;99.90
59148;DHT22;44930;52.878;6.168;2023-10-31T01:44:49;10.00;99.90
59148;DHT22;44930;52.878;6.168;2023-10-31T01:47:15;10.00;99.90
59148;DHT22;44930;52.878;6.168;2023-10-31T01:49:41;10.00;99.90
59148;DHT22;44930;52.878;6.168;2023-10-31T01:52:06;10.00;99.90
59148;DHT22;44930;52.878;6.168;2023-10-31T01:54:35;10.30;99.90
59148;DHT22;44930;52.878;6.168;2023-10-31T01:57:02;10.00;99.90
59148;DHT22;44930;52.878;6.168;2023-10-31T02:01:55;10.00;99.90
59148;DHT22;44930;52.878;6.168;2023-10-31T02:04:23;10.00;99.90
59148;DHT22;44930;52.878;6.168;2023-10-31T02:06:49;10.00;99.90
59148;DHT22;44930;52.878;6.168;2023-10-31T02:09:14;10.00;99.90
59148;DHT22;44930;52.878;6.168;2023-10-31T02:16:31;10.00;99.90
59148;DHT22;44930;52.878;6.168;2023-10-31T02:18:57;10.00;99.90
59148;DHT22;44930;52.878;6.168;2023-10-31T02:21:25;10.20;99.90
59148;DHT22;44930;52.878;6.168;2023-10-31T02:24:02;10.00;99.90
59148;DHT22;44930;52.878;6.168;2023-10-31T02:26:32;10.20;99.90
59148;DHT22;44930;52.878;6.168;2023-10-31T02:28:59;10.10;99.90
59148;DHT22;44930;52.878;6.168;2023-10-31T02:31:25;10.10;99.90
59148;DHT22;44930;52.878;6.168;2023-10-31T02:33:51;10.20;99.90
59148;DHT22;44930;52.878;6.168;2023-10-31T02:36:16;10.10;99.90
59148;DHT22;44930;52.878;6.168;2023-10-31T02:38:42;10.00;99.90
59148;DHT22;44930;52.878;6.168;2023-10-31T02:48:26;10.10;99.90
59148;DHT22;44930;52.878;6.168;2023-10-31T02:50:52;10.10;99.90
59148;DHT22;44930;52.878;6.168;2023-10-31T02:53:18;10.20;99.90
59148;DHT22;44930;52.878;6.168;2023-10-31T02:55:44;10.20;99.90
59148;DHT22;44930;52.878;6.168;2023-10-31T03:00:36;10.40;99.90
59148;DHT22;44930;52.878;6.168;2023-10-31T03:03:02;10.20;99.90
59148;DHT22;44930;52.878;6.168;2023-10-31T03:05:28;10.20;99.90
59148;DHT22;44930;52.878;6.168;2023-10-31T03:07:53;10.20;99.90
59148;DHT22;44930;52.878;6.168;2023-10-31T03:17:40;10.30;99.90
59148;DHT22;44930;52.878;6.168;2023-10-31T03:20:06;10.40;99.90
59148;DHT22;44930;52.878;6.168;2023-10-31T03:22:32;10.40;99.90
59148;DHT22;44930;52.878;6.168;2023-10-31T03:24:57;10.40;99.90
59148;DHT22;44930;52.878;6.168;2023-10-31T03:27:23;10.40;99.90
59148;DHT22;44930;52.878;6.168;2023-10-31T03:37:07;10.40;99.90
59148;DHT22;44930;52.878;6.168;2023-10-31T03:39:33;10.50;99.90
59148;DHT22;44930;52.878;6.168;2023-10-31T03:41:59;10.50;99.90
59148;DHT22;44930;52.878;6.168;2023-10-31T03:44:25;10.40;99.90
59148;DHT22;44930;52.878;6.168;2023-10-31T03:46:50;10.30;99.90
59148;DHT22;44930;52.878;6.168;2023-10-31T03:49:16;10.30;99.90
59148;DHT22;44930;52.878;6.168;2023-10-31T03:56:41;10.10;99.90
59148;DHT22;44930;52.878;6.168;2023-10-31T03:59:07;10.30;99.90
59148;DHT22;44930;52.878;6.168;2023-10-31T04:01:33;10.40;99.90
59148;DHT22;44930;52.878;6.168;2023-10-31T04:03:58;10.30;99.90
59148;DHT22;44930;52.878;6.168;2023-10-31T04:06:24;10.40;99.90
59148;DHT22;44930;52.878;6.168;2023-10-31T04:11:15;10.30;99.90
59148;DHT22;44930;52.878;6.168;2023-10-31T04:13:41;10.40;99.90
59148;DHT22;44930;52.878;6.168;2023-10-31T04:16:07;10.40;99.90
59148;DHT22;44930;52.878;6.168;2023-10-31T04:18:33;10.30;99.90
59148;DHT22;44930;52.878;6.168;2023-10-31T04:20:58;10.20;99.90
59148;DHT22;44930;52.878;6.168;2023-10-31T04:23:24;10.30;99.90
59148;DHT22;44930;52.878;6.168;2023-10-31T04:25:50;10.30;99.90
59148;DHT22;44930;52.878;6.168;2023-10-31T04:28:18;10.20;99.90
59148;DHT22;44930;52.878;6.168;2023-10-31T04:30:43;10.20;99.90
59148;DHT22;44930;52.878;6.168;2023-10-31T04:33:09;10.20;99.90
59148;DHT22;44930;52.878;6.168;2023-10-31T04:35:35;10.20;99.90
59148;DHT22;44930;52.878;6.168;2023-10-31T04:38:00;10.30;99.90
59148;DHT22;44930;52.878;6.168;2023-10-31T04:40:26;10.30;99.90
59148;DHT22;44930;52.878;6.168;2023-10-31T04:45:17;10.20;99.90
59148;DHT22;44930;52.878;6.168;2023-10-31T04:47:43;10.30;99.90
59148;DHT22;44930;52.878;6.168;2023-10-31T04:50:09;10.30;99.90
59148;DHT22;44930;52.878;6.168;2023-10-31T04:52:35;10.30;99.90
59148;DHT22;44930;52.878;6.168;2023-10-31T04:55:00;10.30;99.90
59148;DHT22;44930;52.878;6.168;2023-10-31T04:57:26;10.20;99.90
59148;DHT22;44930;52.878;6.168;2023-10-31T04:59:52;10.20;99.90
59148;DHT22;44930;52.878;6.168;2023-10-31T05:02:21;10.20;99.90
59148;DHT22;44930;52.878;6.168;2023-10-31T05:07:19;10.20;99.90
59148;DHT22;44930;52.878;6.168;2023-10-31T05:12:13;10.60;99.90
59148;DHT22;44930;52.878;6.168;2023-10-31T05:14:40;10.00;99.90
59148;DHT22;44930;52.878;6.168;2023-10-31T05:17:05;10.30;99.90
59148;DHT22;44930;52.878;6.168;2023-10-31T05:19:31;10.20;99.90
59148;DHT22;44930;52.878;6.168;2023-10-31T05:21:56;10.20;99.90
59148;DHT22;44930;52.878;6.168;2023-10-31T05:26:48;10.30;99.90
59148;DHT22;44930;52.878;6.168;2023-10-31T05:29:14;10.30;99.90
59148;DHT22;44930;52.878;6.168;2023-10-31T05:31:39;10.10;99.90
59148;DHT22;44930;52.878;6.168;2023-10-31T05:34:07;10.30;99.90
59148;DHT22;44930;52.878;6.168;2023-10-31T05:38:58;10.20;99.90
59148;DHT22;44930;52.878;6.168;2023-10-31T05:48:45;10.20;99.90
59148;DHT22;44930;52.878;6.168;2023-10-31T05:51:16;10.20;99.90
59148;DHT22;44930;52.878;6.168;2023-10-31T05:53:44;10.30;99.90
59148;DHT22;44930;52.878;6.168;2023-10-31T05:56:14;10.20;99.90
59148;DHT22;44930;52.878;6.168;2023-10-31T05:58:40;10.10;99.90
59148;DHT22;44930;52.878;6.168;2023-10-31T06:01:06;10.10;99.90
59148;DHT22;44930;52.878;6.168;2023-10-31T06:03:34;10.30;99.90
59148;DHT22;44930;52.878;6.168;2023-10-31T06:06:00;10.40;99.90
59148;DHT22;44930;52.878;6.168;2023-10-31T06:08:26;10.20;99.90
59148;DHT22;44930;52.878;6.168;2023-10-31T06:10:55;10.30;99.90
59148;DHT22;44930;52.878;6.168;2023-10-31T06:13:20;10.30;99.90
59148;DHT22;44930;52.878;6.168;2023-10-31T06:15:47;10.20;99.90
59148;DHT22;44930;52.878;6.168;2023-10-31T06:23:05;10.30;99.90
59148;DHT22;44930;52.878;6.168;2023-10-31T06:25:31;10.30;99.90
59148;DHT22;44930;52.878;6.168;2023-10-31T06:30:22;10.20;99.90
59148;DHT22;44930;52.878;6.168;2023-10-31T06:32:50;10.20;99.90
59148;DHT22;44930;52.878;6.168;2023-10-31T06:35:16;10.30;99.90
59148;DHT22;44930;52.878;6.168;2023-10-31T06:37:41;10.30;99.90
59148;DHT22;44930;52.878;6.168;2023-10-31T06:40:07;10.30;99.90
59148;DHT22;44930;52.878;6.168;2023-10-31T06:47:25;10.30;99.90
59148;DHT22;44930;52.878;6.168;2023-10-31T06:49:50;10.40;99.90
59148;DHT22;44930;52.878;6.168;2023-10-31T06:52:16;10.50;99.90
59148;DHT22;44930;52.878;6.168;2023-10-31T06:54:42;10.60;99.90
59148;DHT22;44930;52.878;6.168;2023-10-31T06:57:07;10.40;99.90
59148;DHT22;44930;52.878;6.168;2023-10-31T07:06:52;10.50;99.90
59148;DHT22;44930;52.878;6.168;2023-10-31T07:09:23;10.50;99.90
59148;DHT22;44930;52.878;6.168;2023-10-31T07:11:49;10.50;99.90
59148;DHT22;44930;52.878;6.168;2023-10-31T07:14:14;10.50;99.90
59148;DHT22;44930;52.878;6.168;2023-10-31T07:16:40;10.60;99.90
59148;DHT22;44930;52.878;6.168;2023-10-31T07:19:05;10.60;99.90
59148;DHT22;44930;52.878;6.168;2023-10-31T07:21:31;10.50;99.90
59148;DHT22;44930;52.878;6.168;2023-10-31T07:23:56;10.60;99.90
59148;DHT22;44930;52.878;6.168;2023-10-31T07:31:15;10.50;99.90
59148;DHT22;44930;52.878;6.168;2023-10-31T07:33:44;10.60;99.90
59148;DHT22;44930;52.878;6.168;2023-10-31T07:36:10;10.60;99.90
59148;DHT22;44930;52.878;6.168;2023-10-31T07:38:35;10.40;99.90
59148;DHT22;44930;52.878;6.168;2023-10-31T07:41:01;10.50;99.90
59148;DHT22;44930;52.878;6.168;2023-10-31T07:43:26;10.60;99.90
59148;DHT22;44930;52.878;6.168;2023-10-31T07:45:52;10.50;99.90
59148;DHT22;44930;52.878;6.168;2023-10-31T07:48:17;10.50;99.90
59148;DHT22;44930;52.878;6.168;2023-10-31T07:50:43;10.50;99.90
59148;DHT22;44930;52.878;6.168;2023-10-31T07:53:08;10.50;99.90
59148;DHT22;44930;52.878;6.168;2023-10-31T07:55:34;10.40;99.90
59148;DHT22;44930;52.878;6.168;2023-10-31T08:02:52;10.50;99.90
59148;DHT22;44930;52.878;6.168;2023-10-31T08:05:17;10.60;99.90
59148;DHT22;44930;52.878;6.168;2023-10-31T08:07:43;10.50;99.90
59148;DHT22;44930;52.878;6.168;2023-10-31T08:10:08;10.60;99.90
59148;DHT22;44930;52.878;6.168;2023-10-31T08:12:34;10.60;99.90
59148;DHT22;44930;52.878;6.168;2023-10-31T08:17:26;10.60;99.90
59148;DHT22;44930;52.878;6.168;2023-10-31T08:19:52;10.60;99.90
59148;DHT22;44930;52.878;6.168;2023-10-31T08:22:17;10.60;99.90
59148;DHT22;44930;52.878;6.168;2023-10-31T08:24:43;10.70;99.90
59148;DHT22;44930;52.878;6.168;2023-10-31T08:27:09;10.60;99.90
59148;DHT22;44930;52.878;6.168;2023-10-31T08:29:35;10.50;99.90
59148;DHT22;44930;52.878;6.168;2023-10-31T08:36:53;10.80;99.90
59148;DHT22;44930;52.878;6.168;2023-10-31T08:41:55;11.10;99.90
59148;DHT22;44930;52.878;6.168;2023-10-31T08:44:21;10.90;99.90
59148;DHT22;44930;52.878;6.168;2023-10-31T08:46:47;11.00;99.90
59148;DHT22;44930;52.878;6.168;2023-10-31T08:49:14;11.10;99.90
59148;DHT22;44930;52.878;6.168;2023-10-31T08:51:40;11.10;99.90
59148;DHT22;44930;52.878;6.168;2023-10-31T08:54:05;11.20;99.90
59148;DHT22;44930;52.878;6.168;2023-10-31T08:56:31;11.20;99.90
59148;DHT22;44930;52.878;6.168;2023-10-31T09:01:23;11.40;99.90
59148;DHT22;44930;52.878;6.168;2023-10-31T09:18:25;12.00;99.90
59148;DHT22;44930;52.878;6.168;2023-10-31T09:20:51;12.10;99.90
59148;DHT22;44930;52.878;6.168;2023-10-31T09:23:17;12.00;99.90
59148;DHT22;44930;52.878;6.168;2023-10-31T09:25:43;12.00;99.90
59148;DHT22;44930;52.878;6.168;2023-10-31T09:28:09;12.00;99.90
59148;DHT22;44930;52.878;6.168;2023-10-31T09:30:35;11.90;99.90
59148;DHT22;44930;52.878;6.168;2023-10-31T09:33:00;11.80;99.90
59148;DHT22;44930;52.878;6.168;2023-10-31T09:35:26;11.70;99.90
59148;DHT22;44930;52.878;6.168;2023-10-31T09:37:52;11.60;99.90
59148;DHT22;44930;52.878;6.168;2023-10-31T09:40:18;11.60;99.90
59148;DHT22;44930;52.878;6.168;2023-10-31T09:42:45;11.40;99.90
59148;DHT22;44930;52.878;6.168;2023-10-31T09:45:11;11.40;99.90
59148;DHT22;44930;52.878;6.168;2023-10-31T09:47:37;11.40;99.90
59148;DHT22;44930;52.878;6.168;2023-10-31T09:50:03;11.30;99.90
59148;DHT22;44930;52.878;6.168;2023-10-31T09:52:29;11.20;99.90
59148;DHT22;44930;52.878;6.168;2023-10-31T09:54:55;11.20;99.90
59148;DHT22;44930;52.878;6.168;2023-10-31T09:57:21;11.20;99.90
59148;DHT22;44930;52.878;6.168;2023-10-31T09:59:47;11.30;99.90
59148;DHT22;44930;52.878;6.168;2023-10-31T10:02:12;11.30;99.90
59148;DHT22;44930;52.878;6.168;2023-10-31T10:07:05;11.00;99.90
59148;DHT22;44930;52.878;6.168;2023-10-31T10:09:31;11.40;99.90
59148;DHT22;44930;52.878;6.168;2023-10-31T10:12:07;11.30;99.90
59148;DHT22;44930;52.878;6.168;2023-10-31T10:21:53;11.40;99.90
59148;DHT22;44930;52.878;6.168;2023-10-31T10:24:19;11.30;99.90
59148;DHT22;44930;52.878;6.168;2023-10-31T10:26:46;11.30;99.90
59148;DHT22;44930;52.878;6.168;2023-10-31T10:29:12;11.40;99.90
59148;DHT22;44930;52.878;6.168;2023-10-31T10:31:37;11.40;99.90
59148;DHT22;44930;52.878;6.168;2023-10-31T10:34:03;11.40;99.90
59148;DHT22;44930;52.878;6.168;2023-10-31T10:36:31;11.30;99.90
59148;DHT22;44930;52.878;6.168;2023-10-31T10:38:57;11.50;99.90
59148;DHT22;44930;52.878;6.168;2023-10-31T10:41:27;11.20;99.90
59148;DHT22;44930;52.878;6.168;2023-10-31T10:43:57;11.30;99.90
59148;DHT22;44930;52.878;6.168;2023-10-31T10:46:27;11.50;99.90
59148;DHT22;44930;52.878;6.168;2023-10-31T10:48:56;11.50;99.90
59148;DHT22;44930;52.878;6.168;2023-10-31T10:51:51;11.50;99.90
59148;DHT22;44930;52.878;6.168;2023-10-31T10:54:37;11.30;99.90
59148;DHT22;44930;52.878;6.168;2023-10-31T10:57:14;11.20;99.90
59148;DHT22;44930;52.878;6.168;2023-10-31T10:59:42;11.20;99.90
59148;DHT22;44930;52.878;6.168;2023-10-31T11:02:10;11.20;99.90
59148;DHT22;44930;52.878;6.168;2023-10-31T11:04:37;11.20;99.90
59148;DHT22;44930;52.878;6.168;2023-10-31T11:07:04;11.20;99.90
59148;DHT22;44930;52.878;6.168;2023-10-31T11:09:31;11.50;99.90
59148;DHT22;44930;52.878;6.168;2023-10-31T11:11:57;11.70;99.90
59148;DHT22;44930;52.878;6.168;2023-10-31T11:16:53;11.80;99.90
59148;DHT22;44930;52.878;6.168;2023-10-31T11:19:19;11.70;99.90
59148;DHT22;44930;52.878;6.168;2023-10-31T11:21:57;11.60;99.90
59148;DHT22;44930;52.878;6.168;2023-10-31T11:24:23;11.60;99.90
59148;DHT22;44930;52.878;6.168;2023-10-31T11:26:51;11.60;99.90
59148;DHT22;44930;52.878;6.168;2023-10-31T11:31:43;11.60;99.90
59148;DHT22;44930;52.878;6.168;2023-10-31T11:34:09;11.60;99.90
59148;DHT22;44930;52.878;6.168;2023-10-31T11:36:38;11.80;99.90
59148;DHT22;44930;52.878;6.168;2023-10-31T11:39:11;11.60;99.90
59148;DHT22;44930;52.878;6.168;2023-10-31T11:44:04;11.80;99.90
59148;DHT22;44930;52.878;6.168;2023-10-31T11:46:30;11.50;99.90
59148;DHT22;44930;52.878;6.168;2023-10-31T11:48:56;11.70;99.90
59148;DHT22;44930;52.878;6.168;2023-10-31T11:51:22;11.50;99.90
59148;DHT22;44930;52.878;6.168;2023-10-31T11:53:48;11.80;99.90
59148;DHT22;44930;52.878;6.168;2023-10-31T12:01:10;12.10;99.90
59148;DHT22;44930;52.878;6.168;2023-10-31T12:03:40;12.20;99.90
59148;DHT22;44930;52.878;6.168;2023-10-31T12:06:07;12.10;99.90
59148;DHT22;44930;52.878;6.168;2023-10-31T12:08:37;12.20;99.90
59148;DHT22;44930;52.878;6.168;2023-10-31T12:11:11;12.40;99.90
59148;DHT22;44930;52.878;6.168;2023-10-31T12:13:38;12.50;99.90
59148;DHT22;44930;52.878;6.168;2023-10-31T12:16:05;12.70;99.90
59148;DHT22;44930;52.878;6.168;2023-10-31T12:18:34;12.30;99.90
59148;DHT22;44930;52.878;6.168;2023-10-31T12:21:00;12.40;99.90
59148;DHT22;44930;52.878;6.168;2023-10-31T12:23:26;12.30;99.90
59148;DHT22;44930;52.878;6.168;2023-10-31T12:25:52;12.10;99.90
59148;DHT22;44930;52.878;6.168;2023-10-31T12:28:18;12.00;99.90
59148;DHT22;44930;52.878;6.168;2023-10-31T12:30:46;11.80;99.90
59148;DHT22;44930;52.878;6.168;2023-10-31T12:33:12;11.80;99.90
59148;DHT22;44930;52.878;6.168;2023-10-31T12:38:04;11.70;99.90
59148;DHT22;44930;52.878;6.168;2023-10-31T12:40:31;11.50;99.90
59148;DHT22;44930;52.878;6.168;2023-10-31T12:42:57;11.50;99.90
59148;DHT22;44930;52.878;6.168;2023-10-31T12:45:24;11.30;99.90
59148;DHT22;44930;52.878;6.168;2023-10-31T12:50:30;11.40;99.90
59148;DHT22;44930;52.878;6.168;2023-10-31T12:52:56;11.40;99.90
59148;DHT22;44930;52.878;6.168;2023-10-31T13:00:20;11.50;99.90
59148;DHT22;44930;52.878;6.168;2023-10-31T13:03:05;11.40;99.90
59148;DHT22;44930;52.878;6.168;2023-10-31T13:05:31;11.90;99.90
59148;DHT22;44930;52.878;6.168;2023-10-31T13:07:58;11.50;99.90
59148;DHT22;44930;52.878;6.168;2023-10-31T13:10:27;11.60;99.90
59148;DHT22;44930;52.878;6.168;2023-10-31T13:12:53;11.70;99.90
59148;DHT22;44930;52.878;6.168;2023-10-31T13:15:23;11.80;99.90
59148;DHT22;44930;52.878;6.168;2023-10-31T13:17:50;11.70;99.90
59148;DHT22;44930;52.878;6.168;2023-10-31T13:20:18;11.50;99.90
59148;DHT22;44930;52.878;6.168;2023-10-31T13:22:44;11.70;99.90
59148;DHT22;44930;52.878;6.168;2023-10-31T13:25:12;11.70;99.90
59148;DHT22;44930;52.878;6.168;2023-10-31T13:27:43;11.70;99.90
59148;DHT22;44930;52.878;6.168;2023-10-31T13:30:12;11.70;99.90
59148;DHT22;44930;52.878;6.168;2023-10-31T13:32:42;11.70;99.90
59148;DHT22;44930;52.878;6.168;2023-10-31T13:35:08;11.60;99.90
59148;DHT22;44930;52.878;6.168;2023-10-31T13:37:35;11.70;99.90
59148;DHT22;44930;52.878;6.168;2023-10-31T13:40:01;11.80;99.90
59148;DHT22;44930;52.878;6.168;2023-10-31T13:42:27;12.10;99.90
59148;DHT22;44930;52.878;6.168;2023-10-31T13:44:53;12.00;99.90
59148;DHT22;44930;52.878;6.168;2023-10-31T13:49:45;12.00;99.90
59148;DHT22;44930;52.878;6.168;2023-10-31T13:52:11;11.90;99.90
59148;DHT22;44930;52.878;6.168;2023-10-31T13:54:37;11.90;99.90
59148;DHT22;44930;52.878;6.168;2023-10-31T13:57:03;12.30;99.90
59148;DHT22;44930;52.878;6.168;2023-10-31T13:59:29;12.30;99.90
59148;DHT22;44930;52.878;6.168;2023-10-31T14:01:55;12.10;99.90
59148;DHT22;44930;52.878;6.168;2023-10-31T14:04:20;12.10;99.90
59148;DHT22;44930;52.878;6.168;2023-10-31T14:06:46;11.90;99.90
59148;DHT22;44930;52.878;6.168;2023-10-31T14:09:12;12.10;99.90
59148;DHT22;44930;52.878;6.168;2023-10-31T14:11:39;12.10;99.90
59148;DHT22;44930;52.878;6.168;2023-10-31T14:14:05;12.00;99.90
59148;DHT22;44930;52.878;6.168;2023-10-31T14:16:33;12.20;99.90
59148;DHT22;44930;52.878;6.168;2023-10-31T14:21:25;12.50;99.90
59148;DHT22;44930;52.878;6.168;2023-10-31T14:23:51;12.30;99.90
59148;DHT22;44930;52.878;6.168;2023-10-31T14:26:20;12.40;99.90
59148;DHT22;44930;52.878;6.168;2023-10-31T14:28:46;12.50;99.90
59148;DHT22;44930;52.878;6.168;2023-10-31T14:31:13;12.40;99.90
59148;DHT22;44930;52.878;6.168;2023-10-31T14:33:38;12.50;99.90
59148;DHT22;44930;52.878;6.168;2023-10-31T14:36:04;12.30;99.90
59148;DHT22;44930;52.878;6.168;2023-10-31T14:38:30;12.20;99.90
59148;DHT22;44930;52.878;6.168;2023-10-31T14:43:22;12.20;99.90
59148;DHT22;44930;52.878;6.168;2023-10-31T14:45:47;12.00;99.90
59148;DHT22;44930;52.878;6.168;2023-10-31T14:55:31;11.80;99.90
59148;DHT22;44930;52.878;6.168;2023-10-31T14:57:57;11.80;99.90
59148;DHT22;44930;52.878;6.168;2023-10-31T15:00:23;11.60;99.90
59148;DHT22;44930;52.878;6.168;2023-10-31T15:02:48;11.60;99.90
59148;DHT22;44930;52.878;6.168;2023-10-31T15:05:14;11.60;99.90
59148;DHT22;44930;52.878;6.168;2023-10-31T15:07:40;11.50;99.90
59148;DHT22;44930;52.878;6.168;2023-10-31T15:10:06;11.80;99.90
59148;DHT22;44930;52.878;6.168;2023-10-31T15:12:32;11.50;99.90
59148;DHT22;44930;52.878;6.168;2023-10-31T15:14:58;11.50;99.90
59148;DHT22;44930;52.878;6.168;2023-10-31T15:19:49;11.20;99.90
59148;DHT22;44930;52.878;6.168;2023-10-31T15:22:15;11.40;99.90
59148;DHT22;44930;52.878;6.168;2023-10-31T15:24:40;11.20;99.90
59148;DHT22;44930;52.878;6.168;2023-10-31T15:29:33;11.30;99.90
59148;DHT22;44930;52.878;6.168;2023-10-31T15:31:59;11.30;99.90
59148;DHT22;44930;52.878;6.168;2023-10-31T15:34:24;11.20;99.90
59148;DHT22;44930;52.878;6.168;2023-10-31T15:39:16;11.20;99.90
59148;DHT22;44930;52.878;6.168;2023-10-31T15:41:42;11.20;99.90
59148;DHT22;44930;52.878;6.168;2023-10-31T15:44:08;11.20;99.90
59148;DHT22;44930;52.878;6.168;2023-10-31T15:46:33;11.00;99.90
59148;DHT22;44930;52.878;6.168;2023-10-31T15:49:03;11.10;99.90
59148;DHT22;44930;52.878;6.168;2023-10-31T15:51:29;11.00;99.90
59148;DHT22;44930;52.878;6.168;2023-10-31T15:53:55;11.00;99.90
59148;DHT22;44930;52.878;6.168;2023-10-31T15:56:20;11.10;99.90
59148;DHT22;44930;52.878;6.168;2023-10-31T15:58:46;11.00;99.90
59148;DHT22;44930;52.878;6.168;2023-10-31T16:03:38;10.80;99.90
59148;DHT22;44930;52.878;6.168;2023-10-31T16:06:04;10.90;99.90
59148;DHT22;44930;52.878;6.168;2023-10-31T16:08:30;11.00;99.90
59148;DHT22;44930;52.878;6.168;2023-10-31T16:10:55;11.10;99.90
59148;DHT22;44930;52.878;6.168;2023-10-31T16:13:21;11.10;99.90
59148;DHT22;44930;52.878;6.168;2023-10-31T16:15:47;11.00;99.90
59148;DHT22;44930;52.878;6.168;2023-10-31T16:20:40;10.90;99.90
59148;DHT22;44930;52.878;6.168;2023-10-31T16:25:34;10.80;99.90
59148;DHT22;44930;52.878;6.168;2023-10-31T16:28:00;10.70;99.90
59148;DHT22;44930;52.878;6.168;2023-10-31T16:30:25;10.80;99.90
59148;DHT22;44930;52.878;6.168;2023-10-31T16:32:51;10.70;99.90
59148;DHT22;44930;52.878;6.168;2023-10-31T16:35:17;10.80;99.90
59148;DHT22;44930;52.878;6.168;2023-10-31T16:40:09;10.80;99.90
59148;DHT22;44930;52.878;6.168;2023-10-31T16:42:34;10.80;99.90
59148;DHT22;44930;52.878;6.168;2023-10-31T16:45:00;11.00;99.90
59148;DHT22;44930;52.878;6.168;2023-10-31T16:49:57;10.80;99.90
59148;DHT22;44930;52.878;6.168;2023-10-31T16:52:22;10.80;99.90
59148;DHT22;44930;52.878;6.168;2023-10-31T16:54:49;11.10;99.90
59148;DHT22;44930;52.878;6.168;2023-10-31T16:57:14;10.90;99.90
59148;DHT22;44930;52.878;6.168;2023-10-31T16:59:40;10.70;99.90
59148;DHT22;44930;52.878;6.168;2023-10-31T17:02:05;10.80;99.90
59148;DHT22;44930;52.878;6.168;2023-10-31T17:04:31;10.90;99.90
59148;DHT22;44930;52.878;6.168;2023-10-31T17:07:00;10.80;99.90
59148;DHT22;44930;52.878;6.168;2023-10-31T17:09:26;10.90;99.90
59148;DHT22;44930;52.878;6.168;2023-10-31T17:14:17;10.90;99.90
59148;DHT22;44930;52.878;6.168;2023-10-31T17:16:43;10.90;99.90
59148;DHT22;44930;52.878;6.168;2023-10-31T17:19:08;10.90;99.90
59148;DHT22;44930;52.878;6.168;2023-10-31T17:21:34;10.80;99.90
59148;DHT22;44930;52.878;6.168;2023-10-31T17:24:00;11.10;99.90
59148;DHT22;44930;52.878;6.168;2023-10-31T17:26:25;10.80;99.90
59148;DHT22;44930;52.878;6.168;2023-10-31T17:31:17;10.90;99.90
59148;DHT22;44930;52.878;6.168;2023-10-31T17:38:36;10.70;99.90
59148;DHT22;44930;52.878;6.168;2023-10-31T17:41:02;10.70;99.90
59148;DHT22;44930;52.878;6.168;2023-10-31T17:43:28;10.80;99.90
59148;DHT22;44930;52.878;6.168;2023-10-31T17:45:54;10.90;99.90
59148;DHT22;44930;52.878;6.168;2023-10-31T17:48:19;10.90;99.90
59148;DHT22;44930;52.878;6.168;2023-10-31T17:50:45;10.80;99.90
59148;DHT22;44930;52.878;6.168;2023-10-31T17:53:11;10.90;99.90
59148;DHT22;44930;52.878;6.168;2023-10-31T17:55:37;10.90;99.90
59148;DHT22;44930;52.878;6.168;2023-10-31T17:58:02;10.90;99.90
59148;DHT22;44930;52.878;6.168;2023-10-31T18:00:28;10.90;99.90
59148;DHT22;44930;52.878;6.168;2023-10-31T18:02:54;10.90;99.90
59148;DHT22;44930;52.878;6.168;2023-10-31T18:05:24;10.80;99.90
59148;DHT22;44930;52.878;6.168;2023-10-31T18:07:49;10.80;99.90
59148;DHT22;44930;52.878;6.168;2023-10-31T18:10:15;11.00;99.90
59148;DHT22;44930;52.878;6.168;2023-10-31T18:12:40;10.80;99.90
59148;DHT22;44930;52.878;6.168;2023-10-31T18:15:07;10.70;99.90
59148;DHT22;44930;52.878;6.168;2023-10-31T18:17:33;10.70;99.90
59148;DHT22;44930;52.878;6.168;2023-10-31T18:19:59;10.70;99.90
59148;DHT22;44930;52.878;6.168;2023-10-31T18:22:25;10.60;99.90
59148;DHT22;44930;52.878;6.168;2023-10-31T18:24:51;10.60;99.90
59148;DHT22;44930;52.878;6.168;2023-10-31T18:27:16;10.60;99.90
59148;DHT22;44930;52.878;6.168;2023-10-31T18:29:42;10.50;99.90
59148;DHT22;44930;52.878;6.168;2023-10-31T18:32:07;10.40;99.90
59148;DHT22;44930;52.878;6.168;2023-10-31T18:34:33;10.40;99.90
59148;DHT22;44930;52.878;6.168;2023-10-31T18:36:59;10.40;99.90
59148;DHT22;44930;52.878;6.168;2023-10-31T18:39:24;10.40;99.90
59148;DHT22;44930;52.878;6.168;2023-10-31T18:41:50;10.30;99.90
59148;DHT22;44930;52.878;6.168;2023-10-31T18:44:15;10.30;99.90
59148;DHT22;44930;52.878;6.168;2023-10-31T18:46:41;10.30;99.90
59148;DHT22;44930;52.878;6.168;2023-10-31T18:49:06;10.30;99.90
59148;DHT22;44930;52.878;6.168;2023-10-31T18:56:24;10.30;99.90
59148;DHT22;44930;52.878;6.168;2023-10-31T19:01:16;10.20;99.90
59148;DHT22;44930;52.878;6.168;2023-10-31T19:03:42;10.10;99.90
59148;DHT22;44930;52.878;6.168;2023-10-31T19:06:08;10.20;99.90
59148;DHT22;44930;52.878;6.168;2023-10-31T19:08:34;10.20;99.90
59148;DHT22;44930;52.878;6.168;2023-10-31T19:10:59;10.20;99.90
59148;DHT22;44930;52.878;6.168;2023-10-31T19:15:51;10.40;99.90
59148;DHT22;44930;52.878;6.168;2023-10-31T19:20:43;10.20;99.90
59148;DHT22;44930;52.878;6.168;2023-10-31T19:25:35;10.10;99.90
59148;DHT22;44930;52.878;6.168;2023-10-31T19:28:00;10.20;99.90